createdAt,value
2023-08-30T00:02:14.628Z,88.35
2023-08-30T00:05:02.334Z,87.64
2023-08-30T00:07:38.286Z,87.03
2023-08-30T00:10:11.707Z,87.12
2023-08-30T00:12:39.203Z,86.78
2023-08-30T00:15:06.526Z,86.45
2023-08-30T00:17:33.561Z,86.31
2023-08-30T00:20:00.655Z,86.29
2023-08-30T00:22:30.646Z,86.67
2023-08-30T00:24:57.700Z,86.36
2023-08-30T00:27:24.893Z,86.41
2023-08-30T00:29:52.164Z,86.51
2023-08-30T00:32:19.104Z,86.61
2023-08-30T00:34:46.123Z,87.78
2023-08-30T00:37:13.470Z,88.33
2023-08-30T00:39:55.050Z,89.16
2023-08-30T00:42:25.481Z,89.09
2023-08-30T00:45:08.396Z,89.55
2023-08-30T00:47:36.864Z,89.87
2023-08-30T00:50:04.129Z,90.25
2023-08-30T00:52:34.608Z,90.07
2023-08-30T00:55:01.992Z,89.90
2023-08-30T00:57:30.116Z,89.83
2023-08-30T00:59:57.140Z,89.46
2023-08-30T01:02:29.975Z,89.26
2023-08-30T01:04:57.593Z,89.61
2023-08-30T01:07:24.670Z,90.14
2023-08-30T01:09:55.104Z,89.97
2023-08-30T01:12:37.814Z,89.55
2023-08-30T01:15:10.921Z,89.24
2023-08-30T01:17:40.536Z,88.44
2023-08-30T01:20:18.073Z,88.25
2023-08-30T01:22:57.304Z,88.32
2023-08-30T01:25:36.441Z,89.03
2023-08-30T01:28:10.439Z,89.26
2023-08-30T01:30:40.073Z,88.24
2023-08-30T01:33:20.648Z,87.98
2023-08-30T01:36:16.506Z,87.57
2023-08-30T01:38:57.096Z,87.39
2023-08-30T01:41:33.899Z,87.59
2023-08-30T01:44:08.227Z,87.97
2023-08-30T01:46:48.852Z,88.16
2023-08-30T01:49:21.687Z,88.15
2023-08-30T01:51:50.160Z,87.94
2023-08-30T01:54:18.927Z,88.07
2023-08-30T01:56:49.176Z,87.90
2023-08-30T01:59:19.603Z,87.98
2023-08-30T02:01:58.336Z,87.91
2023-08-30T02:04:28.544Z,87.92
2023-08-30T02:07:01.075Z,87.93
2023-08-30T02:09:48.852Z,87.89
2023-08-30T02:12:26.605Z,87.99
2023-08-30T02:15:01.578Z,88.60
2023-08-30T02:17:30.258Z,88.88
2023-08-30T02:20:00.708Z,89.09
2023-08-30T02:22:41.988Z,89.39
2023-08-30T02:25:24.700Z,90.26
2023-08-30T02:28:12.092Z,90.68
2023-08-30T02:30:52.363Z,91.17
2023-08-30T02:33:19.790Z,91.29
2023-08-30T02:35:46.869Z,91.20
2023-08-30T02:38:28.266Z,90.79
2023-08-30T02:41:14.460Z,90.94
2023-08-30T02:43:47.952Z,91.24
2023-08-30T02:46:22.992Z,91.23
2023-08-30T02:48:58.333Z,90.58
2023-08-30T02:51:48.308Z,90.62
2023-08-30T02:54:20.795Z,90.37
2023-08-30T02:57:02.478Z,89.81
2023-08-30T02:59:29.910Z,89.60
2023-08-30T03:02:14.299Z,89.61
2023-08-30T03:04:45.286Z,89.83
2023-08-30T03:07:24.787Z,89.72
2023-08-30T03:09:56.730Z,90.66
2023-08-30T03:12:37.912Z,90.22
2023-08-30T03:15:05.417Z,89.87
2023-08-30T03:17:33.264Z,90.14
2023-08-30T03:20:00.819Z,90.12
2023-08-30T03:22:28.166Z,89.73
2023-08-30T03:25:01.463Z,89.73
2023-08-30T03:27:38.141Z,89.63
2023-08-30T03:30:26.639Z,89.58
2023-08-30T03:32:54.196Z,89.60
2023-08-30T03:35:34.497Z,89.84
2023-08-30T03:38:19.873Z,89.36
2023-08-30T03:40:47.461Z,89.59
2023-08-30T03:43:21.072Z,89.70
2023-08-30T03:45:51.488Z,89.84
2023-08-30T03:48:29.962Z,89.85
2023-08-30T03:51:21.952Z,89.22
2023-08-30T03:53:52.602Z,88.93
2023-08-30T03:56:26.556Z,88.99
2023-08-30T03:59:06.761Z,89.87
2023-08-30T04:01:34.074Z,89.80
2023-08-30T04:04:01.344Z,89.60
2023-08-30T04:06:31.236Z,91.18
2023-08-30T04:09:21.740Z,91.11
2023-08-30T04:11:48.930Z,91.14
2023-08-30T04:14:15.898Z,91.86
2023-08-30T04:16:54.141Z,91.94
2023-08-30T04:19:30.425Z,91.47
2023-08-30T04:22:09.476Z,91.52
2023-08-30T04:25:12.570Z,91.57
2023-08-30T04:28:03.096Z,91.52
2023-08-30T04:30:45.797Z,91.80
2023-08-30T04:33:16.465Z,92.53
2023-08-30T04:35:43.494Z,93.09
2023-08-30T04:38:10.813Z,93.22
2023-08-30T04:40:38.089Z,93.51
2023-08-30T04:43:11.248Z,93.51
2023-08-30T04:45:38.672Z,93.69
2023-08-30T04:48:07.535Z,93.43
2023-08-30T04:50:35.505Z,93.25
2023-08-30T04:53:02.638Z,93.22
2023-08-30T04:55:29.944Z,93.30
2023-08-30T04:57:59.305Z,93.14
2023-08-30T05:01:00.937Z,93.23
2023-08-30T05:03:29.854Z,93.51
2023-08-30T05:05:58.346Z,93.29
2023-08-30T05:08:25.306Z,93.17
2023-08-30T05:11:09.073Z,92.82
2023-08-30T05:13:39.809Z,92.71
2023-08-30T05:16:16.537Z,93.89
2023-08-30T05:18:43.760Z,94.29
2023-08-30T05:21:10.906Z,93.66
2023-08-30T05:23:44.996Z,93.56
2023-08-30T05:26:14.937Z,93.86
2023-08-30T05:29:02.496Z,93.70
2023-08-30T05:31:33.012Z,93.38
2023-08-30T05:34:11.697Z,92.64
2023-08-30T05:37:19.492Z,92.17
2023-08-30T05:39:55.898Z,92.24
2023-08-30T05:42:50.782Z,92.77
2023-08-30T05:45:38.916Z,92.94
2023-08-30T05:48:29.558Z,92.32
2023-08-30T05:50:59.650Z,92.05
2023-08-30T05:53:26.622Z,91.17
2023-08-30T05:55:54.674Z,90.77
2023-08-30T05:58:21.830Z,90.60
2023-08-30T06:00:49.249Z,89.73
2023-08-30T06:03:16.610Z,89.30
2023-08-30T06:05:49.173Z,89.19
2023-08-30T06:08:21.747Z,89.02
2023-08-30T06:10:49.108Z,88.11
2023-08-30T06:13:16.175Z,87.39
2023-08-30T06:15:45.254Z,87.00
2023-08-30T06:18:12.602Z,85.97
2023-08-30T06:20:42.569Z,85.48
2023-08-30T06:23:10.131Z,85.04
2023-08-30T06:25:37.063Z,83.74
2023-08-30T06:28:04.718Z,84.08
2023-08-30T06:30:31.591Z,84.33
2023-08-30T06:32:58.699Z,83.87
2023-08-30T06:35:25.785Z,83.29
2023-08-30T06:37:53.000Z,82.25
2023-08-30T06:40:19.930Z,81.82
2023-08-30T06:42:46.996Z,80.78
2023-08-30T06:45:13.834Z,79.84
2023-08-30T06:47:40.822Z,79.28
2023-08-30T06:50:10.029Z,79.12
2023-08-30T06:52:37.451Z,79.47
2023-08-30T06:55:04.812Z,78.80
2023-08-30T06:57:31.647Z,78.43
2023-08-30T06:59:59.824Z,78.75
2023-08-30T07:02:29.936Z,78.14
2023-08-30T07:04:59.324Z,78.44
2023-08-30T07:07:26.325Z,78.05
2023-08-30T07:09:53.200Z,77.54
2023-08-30T07:12:20.127Z,78.07
2023-08-30T07:14:47.060Z,78.11
2023-08-30T07:17:14.119Z,77.88
2023-08-30T07:19:41.130Z,77.34
2023-08-30T07:22:08.032Z,77.39
2023-08-30T07:24:35.061Z,77.49
2023-08-30T07:27:02.029Z,75.72
2023-08-30T07:29:29.003Z,75.11
2023-08-30T07:31:55.982Z,75.44
2023-08-30T07:34:23.118Z,73.79
2023-08-30T07:36:50.112Z,73.58
2023-08-30T07:39:16.923Z,69.68
2023-08-30T07:41:44.224Z,68.07
2023-08-30T07:44:11.052Z,69.33
2023-08-30T07:46:38.273Z,67.68
2023-08-30T07:49:05.187Z,67.92
2023-08-30T07:51:32.076Z,68.79
2023-08-30T07:53:59.070Z,69.20
2023-08-30T07:56:26.566Z,68.69
2023-08-30T07:58:54.493Z,68.90
2023-08-30T08:01:21.420Z,67.47
2023-08-30T08:04:04.102Z,66.63
2023-08-30T08:06:33.051Z,65.47
2023-08-30T08:09:00.395Z,65.81
2023-08-30T08:11:27.350Z,65.48
2023-08-30T08:13:54.345Z,66.88
2023-08-30T08:16:21.280Z,66.63
2023-08-30T08:18:48.379Z,66.59
2023-08-30T08:21:15.154Z,65.58
2023-08-30T08:23:42.813Z,65.09
2023-08-30T08:26:10.024Z,65.28
2023-08-30T08:28:36.851Z,63.28
2023-08-30T08:31:03.671Z,63.90
2023-08-30T08:33:30.763Z,64.40
2023-08-30T08:35:57.744Z,63.16
2023-08-30T08:38:24.635Z,63.82
2023-08-30T08:40:53.988Z,63.53
2023-08-30T08:43:21.126Z,62.45
2023-08-30T08:45:48.803Z,62.30
2023-08-30T08:48:15.759Z,63.50
2023-08-30T08:50:43.934Z,62.50
2023-08-30T08:53:10.832Z,62.22
2023-08-30T08:55:38.277Z,60.48
2023-08-30T08:58:05.051Z,60.39
2023-08-30T09:00:32.133Z,59.62
2023-08-30T09:02:59.351Z,58.47
2023-08-30T09:05:26.636Z,59.46
2023-08-30T09:07:55.237Z,59.31
2023-08-30T09:10:22.462Z,59.19
2023-08-30T09:12:49.570Z,56.75
2023-08-30T09:15:18.026Z,57.09
2023-08-30T09:17:47.416Z,57.56
2023-08-30T09:20:14.573Z,55.70
2023-08-30T09:22:42.118Z,54.59
2023-08-30T09:25:09.804Z,55.52
2023-08-30T09:27:39.264Z,55.23
2023-08-30T09:30:08.599Z,54.95
2023-08-30T09:32:42.224Z,55.28
2023-08-30T09:35:09.532Z,55.17
2023-08-30T09:37:36.476Z,55.24
2023-08-30T09:40:03.737Z,55.80
2023-08-30T09:42:31.734Z,55.79
2023-08-30T09:44:58.862Z,54.64
2023-08-30T09:47:27.621Z,55.31
2023-08-30T09:49:55.814Z,54.45
2023-08-30T09:52:24.339Z,53.63
2023-08-30T09:54:51.889Z,53.99
2023-08-30T09:57:19.431Z,54.56
2023-08-30T09:59:49.346Z,54.65
2023-08-30T10:02:17.819Z,55.06
2023-08-30T10:04:45.719Z,54.72
2023-08-30T10:07:13.102Z,54.90
2023-08-30T10:09:55.251Z,55.10
2023-08-30T10:12:31.955Z,56.72
2023-08-30T10:15:00.787Z,57.42
2023-08-30T10:17:29.574Z,56.36
2023-08-30T10:19:57.741Z,55.55
2023-08-30T10:22:25.568Z,54.84
2023-08-30T10:27:43.981Z,53.38
2023-08-30T10:30:12.155Z,55.20
2023-08-30T10:32:43.082Z,54.48
2023-08-30T10:35:16.561Z,54.12
2023-08-30T10:37:53.895Z,53.27
2023-08-30T10:40:22.621Z,53.52
2023-08-30T10:43:02.786Z,52.39
2023-08-30T10:45:30.757Z,51.39
2023-08-30T10:47:58.519Z,50.65
2023-08-30T10:50:30.516Z,51.94
2023-08-30T10:52:58.275Z,50.91
2023-08-30T10:55:25.534Z,51.92
2023-08-30T10:58:05.811Z,50.89
2023-08-30T11:00:33.158Z,51.58
2023-08-30T11:03:00.090Z,50.52
2023-08-30T11:05:28.389Z,50.18
2023-08-30T11:07:55.289Z,51.19
2023-08-30T11:10:22.267Z,52.50
2023-08-30T11:12:50.054Z,52.93
2023-08-30T11:15:17.245Z,51.76
2023-08-30T11:17:47.477Z,52.66
2023-08-30T11:20:17.542Z,53.02
2023-08-30T11:22:45.354Z,52.92
2023-08-30T11:25:13.364Z,53.46
2023-08-30T11:27:40.647Z,54.28
2023-08-30T11:30:09.052Z,53.77
2023-08-30T11:32:36.976Z,53.85
2023-08-30T11:35:04.631Z,53.31
2023-08-30T11:37:31.585Z,54.26
2023-08-30T11:39:59.039Z,54.21
2023-08-30T11:42:26.331Z,54.38
2023-08-30T11:44:54.321Z,55.97
2023-08-30T11:47:23.571Z,58.66
2023-08-30T11:49:52.732Z,56.98
2023-08-30T11:52:20.561Z,56.42
2023-08-30T11:54:50.961Z,56.11
2023-08-30T11:57:18.618Z,57.36
2023-08-30T11:59:45.662Z,56.81
2023-08-30T12:02:14.442Z,57.30
2023-08-30T12:04:42.273Z,55.71
2023-08-30T12:07:09.577Z,55.33
2023-08-30T12:09:37.234Z,55.56
2023-08-30T12:12:10.970Z,54.35
2023-08-30T12:14:38.041Z,54.08
2023-08-30T12:17:05.668Z,53.31
2023-08-30T12:19:33.342Z,53.01
2023-08-30T12:22:06.637Z,52.90
2023-08-30T12:24:46.575Z,52.48
2023-08-30T12:27:34.755Z,53.03
2023-08-30T12:30:02.312Z,52.82
2023-08-30T12:32:32.237Z,52.17
2023-08-30T12:34:59.858Z,51.88
2023-08-30T12:37:27.374Z,51.03
2023-08-30T12:39:54.701Z,51.44
2023-08-30T12:42:21.631Z,52.04
2023-08-30T12:44:48.436Z,52.12
2023-08-30T12:47:15.746Z,52.60
2023-08-30T12:49:42.925Z,53.19
2023-08-30T12:52:09.848Z,53.43
2023-08-30T12:54:36.756Z,53.88
2023-08-30T12:57:03.962Z,54.01
2023-08-30T12:59:30.836Z,54.44
2023-08-30T13:01:57.670Z,54.50
2023-08-30T13:04:24.518Z,54.52
2023-08-30T13:06:52.135Z,54.74
2023-08-30T13:09:19.097Z,54.82
2023-08-30T13:11:46.112Z,54.49
2023-08-30T13:14:12.923Z,54.57
2023-08-30T13:16:39.933Z,54.88
2023-08-30T13:19:06.920Z,55.50
2023-08-30T13:21:41.500Z,55.08
2023-08-30T13:24:08.866Z,54.69
2023-08-30T13:26:35.925Z,54.33
2023-08-30T13:29:03.139Z,54.24
2023-08-30T13:31:30.206Z,53.97
2023-08-30T13:33:57.477Z,52.69
2023-08-30T13:36:24.401Z,52.37
2023-08-30T13:38:51.541Z,52.65
2023-08-30T13:41:18.716Z,51.70
2023-08-30T13:43:45.643Z,52.25
2023-08-30T13:46:12.697Z,52.02
2023-08-30T13:48:39.691Z,53.06
2023-08-30T13:51:06.604Z,54.05
2023-08-30T13:53:33.706Z,54.46
2023-08-30T13:56:00.540Z,55.03
2023-08-30T13:58:27.558Z,55.59
2023-08-30T14:00:54.360Z,56.19
2023-08-30T14:03:21.484Z,56.37
2023-08-30T14:05:48.379Z,56.32
2023-08-30T14:08:15.265Z,56.80
2023-08-30T14:10:42.314Z,56.94
2023-08-30T14:13:09.600Z,57.32
2023-08-30T14:15:37.147Z,58.02
2023-08-30T14:18:04.474Z,57.79
2023-08-30T14:20:31.766Z,57.90
2023-08-30T14:22:58.804Z,58.47
2023-08-30T14:25:25.860Z,58.64
2023-08-30T14:27:52.748Z,58.71
2023-08-30T14:30:19.652Z,59.02
2023-08-30T14:32:46.583Z,59.21
2023-08-30T14:35:13.506Z,59.30
2023-08-30T14:37:40.464Z,59.00
2023-08-30T14:40:08.305Z,58.95
2023-08-30T14:42:35.237Z,59.62
2023-08-30T14:45:03.168Z,59.54
2023-08-30T14:47:31.586Z,59.54
2023-08-30T14:49:58.704Z,59.53
2023-08-30T14:52:25.605Z,60.07
2023-08-30T14:54:52.573Z,60.07
2023-08-30T14:57:19.451Z,60.01
2023-08-30T14:59:47.098Z,59.94
2023-08-30T15:02:13.973Z,60.05
2023-08-30T15:04:41.248Z,60.58
2023-08-30T15:07:08.298Z,60.48
2023-08-30T15:09:35.118Z,60.16
2023-08-30T15:12:01.989Z,60.40
2023-08-30T15:14:33.224Z,60.11
2023-08-30T15:17:00.273Z,60.31
2023-08-30T15:19:27.314Z,60.59
2023-08-30T15:21:54.333Z,60.48
2023-08-30T15:24:21.236Z,60.45
2023-08-30T15:26:49.219Z,60.24
2023-08-30T15:29:16.431Z,60.29
2023-08-30T15:31:44.405Z,60.71
2023-08-30T15:34:11.752Z,61.24
2023-08-30T15:36:41.672Z,61.92
2023-08-30T15:39:09.410Z,62.99
2023-08-30T15:41:36.661Z,63.45
2023-08-30T15:44:04.114Z,63.71
2023-08-30T15:46:31.876Z,64.06
2023-08-30T15:49:04.730Z,65.02
2023-08-30T15:51:58.079Z,65.07
2023-08-30T15:54:36.507Z,65.30
2023-08-30T15:57:03.675Z,66.77
2023-08-30T15:59:30.704Z,67.21
2023-08-30T16:01:57.893Z,67.34
2023-08-30T16:04:27.853Z,68.62
2023-08-30T16:07:00.192Z,69.64
2023-08-30T16:09:27.617Z,69.15
2023-08-30T16:11:54.776Z,69.92
2023-08-30T16:14:21.787Z,70.62
2023-08-30T16:16:48.619Z,71.01
2023-08-30T16:19:15.530Z,73.51
2023-08-30T16:21:42.865Z,72.02
2023-08-30T16:24:10.045Z,73.24
2023-08-30T16:26:37.373Z,73.06
2023-08-30T16:29:05.149Z,74.21
2023-08-30T16:31:31.991Z,74.91
2023-08-30T16:33:59.044Z,74.13
2023-08-30T16:36:25.875Z,73.34
2023-08-30T16:38:52.641Z,75.18
2023-08-30T16:41:19.546Z,74.47
2023-08-30T16:43:46.460Z,77.96
2023-08-30T16:46:13.420Z,82.68
2023-08-30T16:48:40.338Z,85.49
2023-08-30T16:51:09.137Z,87.42
2023-08-30T16:53:36.146Z,89.70
2023-08-30T16:56:03.579Z,90.70
2023-08-30T16:58:31.489Z,90.72
2023-08-30T17:00:58.533Z,91.43
2023-08-30T17:03:25.627Z,91.23
2023-08-30T17:05:52.533Z,91.78
2023-08-30T17:08:19.496Z,91.76
2023-08-30T17:10:46.455Z,90.48
2023-08-30T17:13:31.465Z,89.94
2023-08-30T17:16:03.024Z,89.56
2023-08-30T17:18:31.882Z,88.60
2023-08-30T17:20:58.947Z,87.78
2023-08-30T17:23:26.066Z,87.26
2023-08-30T17:25:53.301Z,86.61
2023-08-30T17:28:21.151Z,86.84
2023-08-30T17:30:55.373Z,86.86
2023-08-30T17:33:22.760Z,87.04
2023-08-30T17:35:52.702Z,87.06
2023-08-30T17:38:19.546Z,86.79
2023-08-30T17:40:55.038Z,85.86
2023-08-30T17:43:37.021Z,85.41
2023-08-30T17:46:07.449Z,85.82
2023-08-30T17:48:34.760Z,85.55
2023-08-30T17:51:03.535Z,85.87
2023-08-30T17:53:30.567Z,85.76
2023-08-30T17:55:58.424Z,85.67
2023-08-30T17:58:27.138Z,85.02
2023-08-30T18:00:55.279Z,85.62
2023-08-30T18:03:30.564Z,85.88
2023-08-30T18:06:01.602Z,86.73
2023-08-30T18:08:28.610Z,87.12
2023-08-30T18:10:55.914Z,87.50
2023-08-30T18:13:25.218Z,87.19
2023-08-30T18:16:15.251Z,86.77
2023-08-30T18:18:45.738Z,86.52
2023-08-30T18:21:15.909Z,87.22
2023-08-30T18:23:45.817Z,87.33
2023-08-30T18:26:13.296Z,86.96
2023-08-30T18:28:43.607Z,87.23
2023-08-30T18:31:10.819Z,87.35
2023-08-30T18:33:37.611Z,87.88
2023-08-30T18:36:05.970Z,88.43
2023-08-30T18:38:56.324Z,87.97
2023-08-30T18:41:54.601Z,88.65
2023-08-30T18:44:44.582Z,88.01
2023-08-30T18:47:15.743Z,88.63
2023-08-30T18:49:42.686Z,89.17
2023-08-30T18:52:09.884Z,88.79
2023-08-30T18:54:39.470Z,89.59
2023-08-30T18:57:08.043Z,88.87
2023-08-30T18:59:35.284Z,87.87
2023-08-30T19:02:02.409Z,87.40
2023-08-30T19:04:29.623Z,87.37
2023-08-30T19:06:56.768Z,86.60
2023-08-30T19:09:24.061Z,87.02
2023-08-30T19:12:13.676Z,87.66
2023-08-30T19:15:07.846Z,87.90
2023-08-30T19:17:40.589Z,88.50
2023-08-30T19:20:08.039Z,89.08
2023-08-30T19:22:35.359Z,88.58
2023-08-30T19:25:02.516Z,88.98
2023-08-30T19:27:29.743Z,89.39
2023-08-30T19:29:56.860Z,90.40
2023-08-30T19:32:24.063Z,90.52
2023-08-30T19:34:52.336Z,90.55
2023-08-30T19:37:22.426Z,90.53
2023-08-30T19:39:49.362Z,89.55
2023-08-30T19:42:21.893Z,89.13
2023-08-30T19:45:06.416Z,88.93
2023-08-30T19:47:53.860Z,89.02
2023-08-30T19:50:24.068Z,89.11
2023-08-30T19:53:04.998Z,88.45
2023-08-30T19:55:34.613Z,88.06
2023-08-30T19:58:04.167Z,88.35
2023-08-30T20:00:34.637Z,88.47
2023-08-30T20:03:01.683Z,88.54
2023-08-30T20:05:28.679Z,88.76
2023-08-30T20:07:56.656Z,89.18
2023-08-30T20:10:23.656Z,89.57
2023-08-30T20:12:50.846Z,89.85
2023-08-30T20:15:27.469Z,90.23
2023-08-30T20:17:57.359Z,90.86
2023-08-30T20:20:46.568Z,91.49
2023-08-30T20:23:42.111Z,92.53
2023-08-30T20:26:10.160Z,92.94
2023-08-30T20:28:37.150Z,93.12
2023-08-30T20:31:05.280Z,93.29
2023-08-30T20:33:32.336Z,93.46
2023-08-30T20:36:04.399Z,93.64
2023-08-30T20:38:31.673Z,93.75
2023-08-30T20:41:06.611Z,94.11
2023-08-30T20:44:18.976Z,94.20
2023-08-30T20:46:50.290Z,94.30
2023-08-30T20:49:17.333Z,94.08
2023-08-30T20:51:44.272Z,93.95
2023-08-30T20:54:11.505Z,93.26
2023-08-30T20:56:38.948Z,93.18
2023-08-30T20:59:14.493Z,93.50
2023-08-30T21:01:46.238Z,93.70
2023-08-30T21:04:13.232Z,93.32
2023-08-30T21:06:44.921Z,93.23
2023-08-30T21:09:15.345Z,93.38
2023-08-30T21:11:44.812Z,93.10
2023-08-30T21:14:13.604Z,92.37
2023-08-30T21:16:40.825Z,91.15
2023-08-30T21:19:07.720Z,90.57
2023-08-30T21:21:34.732Z,90.40
2023-08-30T21:24:01.758Z,90.39
2023-08-30T21:26:52.816Z,91.21
2023-08-30T21:29:42.535Z,92.53
2023-08-30T21:32:53.220Z,92.84
2023-08-30T21:35:22.829Z,92.93
2023-08-30T21:37:53.677Z,92.13
2023-08-30T21:41:01.486Z,90.86
2023-08-30T21:43:38.276Z,91.08
2023-08-30T21:46:31.429Z,91.92
2023-08-30T21:49:04.106Z,91.64
2023-08-30T21:52:00.805Z,93.34
2023-08-30T21:54:28.191Z,93.78
2023-08-30T21:56:55.356Z,93.26
2023-08-30T21:59:22.716Z,92.93
2023-08-30T22:02:20.376Z,92.99
2023-08-30T22:04:52.675Z,93.21
2023-08-30T22:07:30.294Z,93.61
2023-08-30T22:10:57.863Z,93.43
2023-08-30T22:14:10.583Z,91.95
2023-08-30T22:17:20.668Z,91.80
2023-08-30T22:19:53.720Z,92.05
2023-08-30T22:22:20.955Z,92.25
2023-08-30T22:24:58.093Z,92.40
2023-08-30T22:27:28.264Z,93.23
2023-08-30T22:29:56.345Z,93.74
2023-08-30T22:32:23.557Z,93.31
2023-08-30T22:35:00.838Z,93.48
2023-08-30T22:37:28.993Z,93.94
2023-08-30T22:40:07.429Z,93.37
2023-08-30T22:42:40.596Z,93.61
2023-08-30T22:45:08.585Z,93.64
2023-08-30T22:48:17.294Z,93.22
2023-08-30T22:50:47.554Z,93.20
2023-08-30T22:53:14.743Z,93.18
2023-08-30T22:55:42.840Z,93.07
2023-08-30T22:58:09.955Z,92.78
2023-08-30T23:00:49.222Z,92.13
2023-08-30T23:03:17.217Z,92.30
2023-08-30T23:05:44.397Z,92.56
2023-08-30T23:08:11.840Z,92.90
2023-08-30T23:10:38.872Z,93.08
2023-08-30T23:13:05.848Z,93.32
2023-08-30T23:15:40.478Z,93.63
2023-08-30T23:18:10.111Z,93.68
2023-08-30T23:21:17.765Z,93.61
2023-08-30T23:24:25.442Z,92.65
2023-08-30T23:27:33.533Z,92.57
2023-08-30T23:30:54.931Z,93.12
2023-08-30T23:33:33.330Z,93.28
2023-08-30T23:36:29.852Z,92.21
2023-08-30T23:39:46.284Z,91.61
2023-08-30T23:43:07.714Z,91.34
2023-08-30T23:45:57.859Z,91.09
2023-08-30T23:49:08.401Z,91.20
2023-08-30T23:51:55.750Z,91.56
2023-08-30T23:54:25.474Z,91.50
2023-08-30T23:57:25.813Z,92.00
2023-08-30T23:59:56.357Z,92.41
